sensor_id;sensor_type;location;lat;lon;timestamp;P1;durP1;ratioP1;P2;durP2;ratioP2
19038;SDS011;9652;49.014;12.052;2022-12-29T00:00:03;8.07;;;6.37;;
19038;SDS011;9652;49.014;12.052;2022-12-29T00:02:39;8.47;;;6.77;;
19038;SDS011;9652;49.014;12.052;2022-12-29T00:05:08;7.07;;;6.37;;
19038;SDS011;9652;49.014;12.052;2022-12-29T00:07:35;7.73;;;6.93;;
19038;SDS011;9652;49.014;12.052;2022-12-29T00:10:02;6.77;;;5.80;;
19038;SDS011;9652;49.014;12.052;2022-12-29T00:12:31;7.10;;;6.40;;
19038;SDS011;9652;49.014;12.052;2022-12-29T00:15:12;7.40;;;6.60;;
19038;SDS011;9652;49.014;12.052;2022-12-29T00:17:57;7.70;;;6.57;;
19038;SDS011;9652;49.014;12.052;2022-12-29T00:20:25;7.07;;;6.37;;
19038;SDS011;9652;49.014;12.052;2022-12-29T00:23:10;8.50;;;6.50;;
19038;SDS011;9652;49.014;12.052;2022-12-29T00:25:54;7.23;;;6.07;;
19038;SDS011;9652;49.014;12.052;2022-12-29T00:28:40;10.87;;;6.13;;
19038;SDS011;9652;49.014;12.052;2022-12-29T00:31:25;8.40;;;5.93;;
19038;SDS011;9652;49.014;12.052;2022-12-29T00:34:10;6.07;;;5.47;;
19038;SDS011;9652;49.014;12.052;2022-12-29T00:36:57;6.93;;;5.40;;
19038;SDS011;9652;49.014;12.052;2022-12-29T00:39:25;7.10;;;6.37;;
19038;SDS011;9652;49.014;12.052;2022-12-29T00:42:10;7.57;;;6.17;;
19038;SDS011;9652;49.014;12.052;2022-12-29T00:44:55;6.17;;;5.50;;
19038;SDS011;9652;49.014;12.052;2022-12-29T00:47:22;7.00;;;6.30;;
19038;SDS011;9652;49.014;12.052;2022-12-29T00:49:49;7.53;;;6.20;;
19038;SDS011;9652;49.014;12.052;2022-12-29T00:52:17;6.97;;;6.37;;
19038;SDS011;9652;49.014;12.052;2022-12-29T00:54:44;6.73;;;5.90;;
19038;SDS011;9652;49.014;12.052;2022-12-29T00:57:11;6.50;;;5.67;;
19038;SDS011;9652;49.014;12.052;2022-12-29T00:59:39;7.00;;;5.97;;
19038;SDS011;9652;49.014;12.052;2022-12-29T01:02:08;6.50;;;5.90;;
19038;SDS011;9652;49.014;12.052;2022-12-29T01:04:36;6.73;;;6.10;;
19038;SDS011;9652;49.014;12.052;2022-12-29T01:07:04;7.53;;;5.93;;
19038;SDS011;9652;49.014;12.052;2022-12-29T01:09:32;7.00;;;6.30;;
19038;SDS011;9652;49.014;12.052;2022-12-29T01:12:17;6.87;;;5.93;;
19038;SDS011;9652;49.014;12.052;2022-12-29T01:15:06;6.63;;;5.93;;
19038;SDS011;9652;49.014;12.052;2022-12-29T01:17:35;7.53;;;6.73;;
19038;SDS011;9652;49.014;12.052;2022-12-29T01:20:03;7.43;;;5.77;;
19038;SDS011;9652;49.014;12.052;2022-12-29T01:22:31;6.67;;;6.00;;
19038;SDS011;9652;49.014;12.052;2022-12-29T01:24:59;6.67;;;5.90;;
19038;SDS011;9652;49.014;12.052;2022-12-29T01:27:27;8.10;;;6.57;;
19038;SDS011;9652;49.014;12.052;2022-12-29T01:29:54;6.10;;;5.50;;
19038;SDS011;9652;49.014;12.052;2022-12-29T01:32:21;8.70;;;6.27;;
19038;SDS011;9652;49.014;12.052;2022-12-29T01:34:48;6.70;;;6.00;;
19038;SDS011;9652;49.014;12.052;2022-12-29T01:37:15;6.47;;;5.87;;
19038;SDS011;9652;49.014;12.052;2022-12-29T01:39:42;6.80;;;6.20;;
19038;SDS011;9652;49.014;12.052;2022-12-29T01:42:13;6.50;;;5.90;;
19038;SDS011;9652;49.014;12.052;2022-12-29T01:44:47;6.30;;;5.70;;
19038;SDS011;9652;49.014;12.052;2022-12-29T01:47:21;6.70;;;6.10;;
19038;SDS011;9652;49.014;12.052;2022-12-29T01:49:56;6.63;;;5.93;;
19038;SDS011;9652;49.014;12.052;2022-12-29T01:52:29;6.47;;;5.87;;
19038;SDS011;9652;49.014;12.052;2022-12-29T01:55:02;6.33;;;5.67;;
19038;SDS011;9652;49.014;12.052;2022-12-29T01:57:34;7.60;;;5.87;;
19038;SDS011;9652;49.014;12.052;2022-12-29T02:00:09;5.97;;;5.47;;
19038;SDS011;9652;49.014;12.052;2022-12-29T02:02:39;6.23;;;5.60;;
19038;SDS011;9652;49.014;12.052;2022-12-29T02:05:10;6.77;;;6.07;;
19038;SDS011;9652;49.014;12.052;2022-12-29T02:07:44;6.23;;;5.43;;
19038;SDS011;9652;49.014;12.052;2022-12-29T02:10:13;6.13;;;5.53;;
19038;SDS011;9652;49.014;12.052;2022-12-29T02:12:43;6.93;;;5.60;;
19038;SDS011;9652;49.014;12.052;2022-12-29T02:15:11;6.27;;;5.67;;
19038;SDS011;9652;49.014;12.052;2022-12-29T02:17:42;7.33;;;6.20;;
19038;SDS011;9652;49.014;12.052;2022-12-29T02:20:50;5.90;;;5.33;;
19038;SDS011;9652;49.014;12.052;2022-12-29T02:24:06;6.47;;;5.70;;
19038;SDS011;9652;49.014;12.052;2022-12-29T02:27:54;7.40;;;5.97;;
19038;SDS011;9652;49.014;12.052;2022-12-29T02:30:44;6.03;;;5.43;;
19038;SDS011;9652;49.014;12.052;2022-12-29T02:33:23;6.10;;;5.50;;
19038;SDS011;9652;49.014;12.052;2022-12-29T02:36:12;6.50;;;5.90;;
19038;SDS011;9652;49.014;12.052;2022-12-29T02:38:56;6.40;;;5.77;;
19038;SDS011;9652;49.014;12.052;2022-12-29T02:41:31;7.07;;;5.93;;
19038;SDS011;9652;49.014;12.052;2022-12-29T02:44:07;6.20;;;5.60;;
19038;SDS011;9652;49.014;12.052;2022-12-29T02:46:43;5.57;;;5.07;;
19038;SDS011;9652;49.014;12.052;2022-12-29T02:49:20;5.83;;;5.27;;
19038;SDS011;9652;49.014;12.052;2022-12-29T02:52:00;6.10;;;5.50;;
19038;SDS011;9652;49.014;12.052;2022-12-29T02:54:32;6.00;;;5.40;;
19038;SDS011;9652;49.014;12.052;2022-12-29T02:57:10;5.97;;;5.40;;
19038;SDS011;9652;49.014;12.052;2022-12-29T02:59:40;5.87;;;5.00;;
19038;SDS011;9652;49.014;12.052;2022-12-29T03:08:28;6.40;;;5.37;;
19038;SDS011;9652;49.014;12.052;2022-12-29T03:11:05;6.03;;;5.43;;
19038;SDS011;9652;49.014;12.052;2022-12-29T03:13:52;5.70;;;5.20;;
19038;SDS011;9652;49.014;12.052;2022-12-29T03:16:46;6.03;;;5.43;;
19038;SDS011;9652;49.014;12.052;2022-12-29T03:19:21;6.17;;;5.63;;
19038;SDS011;9652;49.014;12.052;2022-12-29T03:21:57;6.23;;;5.63;;
19038;SDS011;9652;49.014;12.052;2022-12-29T03:24:53;5.50;;;5.00;;
19038;SDS011;9652;49.014;12.052;2022-12-29T03:27:27;5.60;;;5.10;;
19038;SDS011;9652;49.014;12.052;2022-12-29T03:29:59;7.10;;;5.20;;
19038;SDS011;9652;49.014;12.052;2022-12-29T03:32:33;6.63;;;5.70;;
19038;SDS011;9652;49.014;12.052;2022-12-29T03:35:10;6.60;;;5.40;;
19038;SDS011;9652;49.014;12.052;2022-12-29T03:37:43;5.67;;;5.17;;
19038;SDS011;9652;49.014;12.052;2022-12-29T03:40:18;5.90;;;5.37;;
19038;SDS011;9652;49.014;12.052;2022-12-29T03:42:50;6.10;;;5.33;;
19038;SDS011;9652;49.014;12.052;2022-12-29T03:45:19;6.40;;;5.70;;
19038;SDS011;9652;49.014;12.052;2022-12-29T03:47:46;7.00;;;5.67;;
19038;SDS011;9652;49.014;12.052;2022-12-29T03:50:17;6.30;;;5.70;;
19038;SDS011;9652;49.014;12.052;2022-12-29T03:52:44;6.30;;;5.70;;
19038;SDS011;9652;49.014;12.052;2022-12-29T03:55:11;5.70;;;5.20;;
19038;SDS011;9652;49.014;12.052;2022-12-29T03:57:39;5.93;;;5.40;;
19038;SDS011;9652;49.014;12.052;2022-12-29T04:00:10;5.97;;;5.37;;
19038;SDS011;9652;49.014;12.052;2022-12-29T04:02:47;5.27;;;4.87;;
19038;SDS011;9652;49.014;12.052;2022-12-29T04:05:20;5.83;;;5.33;;
19038;SDS011;9652;49.014;12.052;2022-12-29T04:07:50;6.13;;;5.53;;
19038;SDS011;9652;49.014;12.052;2022-12-29T04:10:17;6.00;;;5.37;;
19038;SDS011;9652;49.014;12.052;2022-12-29T04:12:47;5.97;;;5.40;;
19038;SDS011;9652;49.014;12.052;2022-12-29T04:15:14;6.27;;;5.63;;
19038;SDS011;9652;49.014;12.052;2022-12-29T04:17:41;6.50;;;5.90;;
19038;SDS011;9652;49.014;12.052;2022-12-29T04:20:09;6.10;;;5.50;;
19038;SDS011;9652;49.014;12.052;2022-12-29T04:23:00;5.90;;;5.30;;
19038;SDS011;9652;49.014;12.052;2022-12-29T04:25:30;6.03;;;5.43;;
19038;SDS011;9652;49.014;12.052;2022-12-29T04:27:58;5.83;;;5.23;;
19038;SDS011;9652;49.014;12.052;2022-12-29T04:30:45;5.83;;;5.33;;
19038;SDS011;9652;49.014;12.052;2022-12-29T04:33:19;6.30;;;5.80;;
19038;SDS011;9652;49.014;12.052;2022-12-29T04:35:47;6.10;;;5.50;;
19038;SDS011;9652;49.014;12.052;2022-12-29T04:38:17;5.90;;;5.30;;
19038;SDS011;9652;49.014;12.052;2022-12-29T04:40:45;5.97;;;5.37;;
19038;SDS011;9652;49.014;12.052;2022-12-29T04:43:14;6.17;;;5.53;;
19038;SDS011;9652;49.014;12.052;2022-12-29T04:46:06;5.50;;;5.00;;
19038;SDS011;9652;49.014;12.052;2022-12-29T04:48:42;5.67;;;5.17;;
19038;SDS011;9652;49.014;12.052;2022-12-29T04:51:44;5.70;;;5.20;;
19038;SDS011;9652;49.014;12.052;2022-12-29T04:54:14;5.63;;;5.13;;
19038;SDS011;9652;49.014;12.052;2022-12-29T04:56:45;6.17;;;5.57;;
19038;SDS011;9652;49.014;12.052;2022-12-29T04:59:14;5.80;;;5.30;;
19038;SDS011;9652;49.014;12.052;2022-12-29T05:01:44;7.07;;;5.93;;
19038;SDS011;9652;49.014;12.052;2022-12-29T05:04:12;6.07;;;5.57;;
19038;SDS011;9652;49.014;12.052;2022-12-29T05:06:40;6.97;;;5.10;;
19038;SDS011;9652;49.014;12.052;2022-12-29T05:09:08;6.10;;;5.50;;
19038;SDS011;9652;49.014;12.052;2022-12-29T05:11:37;5.97;;;5.43;;
19038;SDS011;9652;49.014;12.052;2022-12-29T05:14:04;6.70;;;6.03;;
19038;SDS011;9652;49.014;12.052;2022-12-29T05:16:32;5.63;;;5.13;;
19038;SDS011;9652;49.014;12.052;2022-12-29T05:18:59;6.63;;;5.00;;
19038;SDS011;9652;49.014;12.052;2022-12-29T05:21:26;6.00;;;5.40;;
19038;SDS011;9652;49.014;12.052;2022-12-29T05:23:54;5.73;;;5.13;;
19038;SDS011;9652;49.014;12.052;2022-12-29T05:26:22;6.00;;;5.50;;
19038;SDS011;9652;49.014;12.052;2022-12-29T05:28:59;6.23;;;5.63;;
19038;SDS011;9652;49.014;12.052;2022-12-29T05:31:26;5.20;;;4.80;;
19038;SDS011;9652;49.014;12.052;2022-12-29T05:33:53;6.90;;;5.27;;
19038;SDS011;9652;49.014;12.052;2022-12-29T05:36:20;5.63;;;5.13;;
19038;SDS011;9652;49.014;12.052;2022-12-29T05:38:52;6.13;;;5.43;;
19038;SDS011;9652;49.014;12.052;2022-12-29T05:41:19;5.90;;;5.40;;
19038;SDS011;9652;49.014;12.052;2022-12-29T05:44:00;7.17;;;5.87;;
19038;SDS011;9652;49.014;12.052;2022-12-29T05:46:48;5.87;;;5.40;;
19038;SDS011;9652;49.014;12.052;2022-12-29T05:49:19;5.50;;;5.00;;
19038;SDS011;9652;49.014;12.052;2022-12-29T05:52:17;5.40;;;4.90;;
19038;SDS011;9652;49.014;12.052;2022-12-29T05:54:44;6.63;;;5.40;;
19038;SDS011;9652;49.014;12.052;2022-12-29T05:57:15;6.07;;;5.47;;
19038;SDS011;9652;49.014;12.052;2022-12-29T05:59:49;5.47;;;4.97;;
19038;SDS011;9652;49.014;12.052;2022-12-29T06:02:16;5.80;;;5.30;;
19038;SDS011;9652;49.014;12.052;2022-12-29T06:04:43;5.47;;;4.93;;
19038;SDS011;9652;49.014;12.052;2022-12-29T06:07:10;5.97;;;5.37;;
19038;SDS011;9652;49.014;12.052;2022-12-29T06:09:41;10.37;;;5.50;;
19038;SDS011;9652;49.014;12.052;2022-12-29T06:12:09;5.03;;;4.63;;
19038;SDS011;9652;49.014;12.052;2022-12-29T06:14:38;7.80;;;6.30;;
19038;SDS011;9652;49.014;12.052;2022-12-29T06:17:07;5.23;;;4.73;;
19038;SDS011;9652;49.014;12.052;2022-12-29T06:19:34;5.93;;;5.40;;
19038;SDS011;9652;49.014;12.052;2022-12-29T06:22:01;5.63;;;5.13;;
19038;SDS011;9652;49.014;12.052;2022-12-29T06:24:31;5.50;;;5.00;;
19038;SDS011;9652;49.014;12.052;2022-12-29T06:26:59;5.97;;;5.43;;
19038;SDS011;9652;49.014;12.052;2022-12-29T06:29:26;6.27;;;5.67;;
19038;SDS011;9652;49.014;12.052;2022-12-29T06:31:55;6.27;;;4.73;;
19038;SDS011;9652;49.014;12.052;2022-12-29T06:34:25;6.03;;;5.47;;
19038;SDS011;9652;49.014;12.052;2022-12-29T06:36:52;5.50;;;5.00;;
19038;SDS011;9652;49.014;12.052;2022-12-29T06:39:19;5.33;;;4.83;;
19038;SDS011;9652;49.014;12.052;2022-12-29T06:42:01;6.43;;;5.33;;
19038;SDS011;9652;49.014;12.052;2022-12-29T06:44:48;5.83;;;5.33;;
19038;SDS011;9652;49.014;12.052;2022-12-29T06:47:15;6.00;;;5.40;;
19038;SDS011;9652;49.014;12.052;2022-12-29T06:49:43;6.97;;;5.07;;
19038;SDS011;9652;49.014;12.052;2022-12-29T06:52:11;5.23;;;4.73;;
19038;SDS011;9652;49.014;12.052;2022-12-29T06:54:38;5.50;;;4.97;;
19038;SDS011;9652;49.014;12.052;2022-12-29T06:57:05;5.63;;;5.13;;
19038;SDS011;9652;49.014;12.052;2022-12-29T06:59:32;5.80;;;5.30;;
19038;SDS011;9652;49.014;12.052;2022-12-29T07:01:59;5.47;;;4.93;;
19038;SDS011;9652;49.014;12.052;2022-12-29T07:04:27;5.40;;;4.90;;
19038;SDS011;9652;49.014;12.052;2022-12-29T07:06:55;5.43;;;4.93;;
19038;SDS011;9652;49.014;12.052;2022-12-29T07:09:22;5.43;;;5.03;;
19038;SDS011;9652;49.014;12.052;2022-12-29T07:11:49;5.67;;;5.13;;
19038;SDS011;9652;49.014;12.052;2022-12-29T07:14:16;6.00;;;5.20;;
19038;SDS011;9652;49.014;12.052;2022-12-29T07:16:44;5.53;;;5.03;;
19038;SDS011;9652;49.014;12.052;2022-12-29T07:19:11;5.93;;;5.43;;
19038;SDS011;9652;49.014;12.052;2022-12-29T07:21:38;5.20;;;4.80;;
19038;SDS011;9652;49.014;12.052;2022-12-29T07:24:07;6.30;;;5.20;;
19038;SDS011;9652;49.014;12.052;2022-12-29T07:26:35;7.27;;;5.57;;
19038;SDS011;9652;49.014;12.052;2022-12-29T07:29:02;5.40;;;4.90;;
19038;SDS011;9652;49.014;12.052;2022-12-29T07:31:30;6.23;;;5.63;;
19038;SDS011;9652;49.014;12.052;2022-12-29T07:33:57;5.47;;;4.97;;
19038;SDS011;9652;49.014;12.052;2022-12-29T07:36:24;5.63;;;5.13;;
19038;SDS011;9652;49.014;12.052;2022-12-29T07:38:51;6.30;;;5.70;;
19038;SDS011;9652;49.014;12.052;2022-12-29T07:41:19;6.00;;;5.40;;
19038;SDS011;9652;49.014;12.052;2022-12-29T07:43:46;5.80;;;5.30;;
19038;SDS011;9652;49.014;12.052;2022-12-29T07:46:42;5.17;;;4.67;;
19038;SDS011;9652;49.014;12.052;2022-12-29T07:49:09;6.10;;;5.20;;
19038;SDS011;9652;49.014;12.052;2022-12-29T07:51:36;5.97;;;5.47;;
19038;SDS011;9652;49.014;12.052;2022-12-29T07:54:04;5.70;;;5.10;;
19038;SDS011;9652;49.014;12.052;2022-12-29T07:56:32;6.17;;;5.23;;
19038;SDS011;9652;49.014;12.052;2022-12-29T07:58:59;5.23;;;4.67;;
19038;SDS011;9652;49.014;12.052;2022-12-29T08:01:26;5.73;;;5.27;;
19038;SDS011;9652;49.014;12.052;2022-12-29T08:03:53;5.97;;;5.40;;
19038;SDS011;9652;49.014;12.052;2022-12-29T08:06:20;5.83;;;5.33;;
19038;SDS011;9652;49.014;12.052;2022-12-29T08:08:47;5.80;;;5.30;;
19038;SDS011;9652;49.014;12.052;2022-12-29T08:11:14;6.30;;;5.63;;
19038;SDS011;9652;49.014;12.052;2022-12-29T08:13:43;5.83;;;5.23;;
19038;SDS011;9652;49.014;12.052;2022-12-29T08:16:10;4.70;;;4.33;;
19038;SDS011;9652;49.014;12.052;2022-12-29T08:18:37;6.87;;;5.30;;
19038;SDS011;9652;49.014;12.052;2022-12-29T08:21:04;5.67;;;5.17;;
19038;SDS011;9652;49.014;12.052;2022-12-29T08:23:32;6.27;;;5.00;;
19038;SDS011;9652;49.014;12.052;2022-12-29T08:25:59;5.43;;;4.93;;
19038;SDS011;9652;49.014;12.052;2022-12-29T08:28:28;5.10;;;4.60;;
19038;SDS011;9652;49.014;12.052;2022-12-29T08:30:58;5.43;;;4.87;;
19038;SDS011;9652;49.014;12.052;2022-12-29T08:33:26;5.53;;;5.00;;
19038;SDS011;9652;49.014;12.052;2022-12-29T08:35:58;4.70;;;4.30;;
19038;SDS011;9652;49.014;12.052;2022-12-29T08:38:26;5.93;;;5.47;;
19038;SDS011;9652;49.014;12.052;2022-12-29T08:40:54;5.43;;;4.90;;
19038;SDS011;9652;49.014;12.052;2022-12-29T08:43:22;5.27;;;4.87;;
19038;SDS011;9652;49.014;12.052;2022-12-29T08:45:50;5.63;;;5.00;;
19038;SDS011;9652;49.014;12.052;2022-12-29T08:48:18;5.60;;;5.10;;
19038;SDS011;9652;49.014;12.052;2022-12-29T08:50:47;5.40;;;5.00;;
19038;SDS011;9652;49.014;12.052;2022-12-29T08:53:15;5.50;;;5.00;;
19038;SDS011;9652;49.014;12.052;2022-12-29T08:55:44;5.57;;;5.07;;
19038;SDS011;9652;49.014;12.052;2022-12-29T08:58:12;5.73;;;5.23;;
19038;SDS011;9652;49.014;12.052;2022-12-29T09:00:42;6.07;;;5.57;;
19038;SDS011;9652;49.014;12.052;2022-12-29T09:03:10;5.13;;;4.67;;
19038;SDS011;9652;49.014;12.052;2022-12-29T09:05:38;4.67;;;4.27;;
19038;SDS011;9652;49.014;12.052;2022-12-29T09:08:05;5.50;;;5.03;;
19038;SDS011;9652;49.014;12.052;2022-12-29T09:10:32;6.70;;;5.73;;
19038;SDS011;9652;49.014;12.052;2022-12-29T09:12:59;6.53;;;5.83;;
19038;SDS011;9652;49.014;12.052;2022-12-29T09:15:26;5.70;;;5.17;;
19038;SDS011;9652;49.014;12.052;2022-12-29T09:17:53;5.83;;;5.30;;
19038;SDS011;9652;49.014;12.052;2022-12-29T09:20:20;6.10;;;4.87;;
19038;SDS011;9652;49.014;12.052;2022-12-29T09:22:49;5.67;;;5.17;;
19038;SDS011;9652;49.014;12.052;2022-12-29T09:25:16;5.30;;;4.80;;
19038;SDS011;9652;49.014;12.052;2022-12-29T09:27:43;5.03;;;4.60;;
19038;SDS011;9652;49.014;12.052;2022-12-29T09:30:11;5.80;;;5.20;;
19038;SDS011;9652;49.014;12.052;2022-12-29T09:32:40;5.53;;;5.03;;
19038;SDS011;9652;49.014;12.052;2022-12-29T09:35:07;6.47;;;4.87;;
19038;SDS011;9652;49.014;12.052;2022-12-29T09:37:35;5.83;;;5.23;;
19038;SDS011;9652;49.014;12.052;2022-12-29T09:40:04;5.30;;;4.90;;
19038;SDS011;9652;49.014;12.052;2022-12-29T09:42:35;5.33;;;4.83;;
19038;SDS011;9652;49.014;12.052;2022-12-29T09:45:12;5.73;;;4.97;;
19038;SDS011;9652;49.014;12.052;2022-12-29T09:47:44;5.40;;;4.60;;
19038;SDS011;9652;49.014;12.052;2022-12-29T09:50:14;6.07;;;5.47;;
19038;SDS011;9652;49.014;12.052;2022-12-29T09:52:50;5.23;;;4.73;;
19038;SDS011;9652;49.014;12.052;2022-12-29T09:55:29;5.57;;;4.60;;
19038;SDS011;9652;49.014;12.052;2022-12-29T09:58:05;5.43;;;4.93;;
19038;SDS011;9652;49.014;12.052;2022-12-29T10:00:41;6.03;;;4.77;;
19038;SDS011;9652;49.014;12.052;2022-12-29T10:03:15;5.60;;;4.83;;
19038;SDS011;9652;49.014;12.052;2022-12-29T10:05:47;4.87;;;4.37;;
19038;SDS011;9652;49.014;12.052;2022-12-29T10:08:23;5.03;;;4.50;;
19038;SDS011;9652;49.014;12.052;2022-12-29T10:11:05;5.50;;;4.93;;
19038;SDS011;9652;49.014;12.052;2022-12-29T10:13:51;5.07;;;4.57;;
19038;SDS011;9652;49.014;12.052;2022-12-29T10:16:43;4.23;;;3.90;;
19038;SDS011;9652;49.014;12.052;2022-12-29T10:19:26;5.27;;;4.77;;
19038;SDS011;9652;49.014;12.052;2022-12-29T10:22:09;5.10;;;4.60;;
19038;SDS011;9652;49.014;12.052;2022-12-29T10:24:54;3.87;;;3.57;;
19038;SDS011;9652;49.014;12.052;2022-12-29T10:27:24;3.97;;;3.60;;
19038;SDS011;9652;49.014;12.052;2022-12-29T10:29:52;4.47;;;4.07;;
19038;SDS011;9652;49.014;12.052;2022-12-29T10:32:24;5.17;;;4.10;;
19038;SDS011;9652;49.014;12.052;2022-12-29T10:35:00;5.33;;;4.03;;
19038;SDS011;9652;49.014;12.052;2022-12-29T10:37:38;4.80;;;4.30;;
19038;SDS011;9652;49.014;12.052;2022-12-29T10:40:14;4.33;;;3.93;;
19038;SDS011;9652;49.014;12.052;2022-12-29T10:42:52;4.63;;;4.23;;
19038;SDS011;9652;49.014;12.052;2022-12-29T10:45:23;4.73;;;4.17;;
19038;SDS011;9652;49.014;12.052;2022-12-29T10:47:57;4.13;;;3.83;;
19038;SDS011;9652;49.014;12.052;2022-12-29T10:50:29;4.97;;;4.57;;
19038;SDS011;9652;49.014;12.052;2022-12-29T10:52:56;5.10;;;4.37;;
19038;SDS011;9652;49.014;12.052;2022-12-29T10:55:28;4.93;;;4.03;;
19038;SDS011;9652;49.014;12.052;2022-12-29T10:58:04;4.70;;;4.30;;
19038;SDS011;9652;49.014;12.052;2022-12-29T11:00:33;4.17;;;3.77;;
19038;SDS011;9652;49.014;12.052;2022-12-29T11:03:04;4.83;;;4.33;;
19038;SDS011;9652;49.014;12.052;2022-12-29T11:06:10;5.03;;;4.40;;
19038;SDS011;9652;49.014;12.052;2022-12-29T11:08:47;5.03;;;4.37;;
19038;SDS011;9652;49.014;12.052;2022-12-29T11:11:23;4.50;;;4.10;;
19038;SDS011;9652;49.014;12.052;2022-12-29T11:13:58;4.73;;;4.23;;
19038;SDS011;9652;49.014;12.052;2022-12-29T11:16:36;4.37;;;3.77;;
19038;SDS011;9652;49.014;12.052;2022-12-29T11:19:03;4.57;;;4.00;;
19038;SDS011;9652;49.014;12.052;2022-12-29T11:21:32;6.77;;;4.77;;
19038;SDS011;9652;49.014;12.052;2022-12-29T11:24:05;5.37;;;4.63;;
19038;SDS011;9652;49.014;12.052;2022-12-29T11:26:48;5.37;;;4.00;;
19038;SDS011;9652;49.014;12.052;2022-12-29T11:29:24;4.73;;;4.20;;
19038;SDS011;9652;49.014;12.052;2022-12-29T11:31:55;4.47;;;3.80;;
19038;SDS011;9652;49.014;12.052;2022-12-29T11:34:24;4.30;;;3.87;;
19038;SDS011;9652;49.014;12.052;2022-12-29T11:36:58;4.37;;;3.97;;
19038;SDS011;9652;49.014;12.052;2022-12-29T11:39:36;4.43;;;3.37;;
19038;SDS011;9652;49.014;12.052;2022-12-29T11:42:12;4.30;;;3.67;;
19038;SDS011;9652;49.014;12.052;2022-12-29T11:44:44;4.40;;;4.00;;
19038;SDS011;9652;49.014;12.052;2022-12-29T11:47:20;3.77;;;3.40;;
19038;SDS011;9652;49.014;12.052;2022-12-29T11:49:54;4.40;;;4.00;;
19038;SDS011;9652;49.014;12.052;2022-12-29T11:52:25;5.37;;;4.10;;
19038;SDS011;9652;49.014;12.052;2022-12-29T11:55:00;4.33;;;3.93;;
19038;SDS011;9652;49.014;12.052;2022-12-29T11:57:30;6.47;;;3.97;;
19038;SDS011;9652;49.014;12.052;2022-12-29T12:00:06;4.43;;;3.87;;
19038;SDS011;9652;49.014;12.052;2022-12-29T12:02:48;5.57;;;3.83;;
19038;SDS011;9652;49.014;12.052;2022-12-29T12:05:24;5.13;;;3.67;;
19038;SDS011;9652;49.014;12.052;2022-12-29T12:08:03;4.17;;;3.33;;
19038;SDS011;9652;49.014;12.052;2022-12-29T12:10:39;4.50;;;4.00;;
19038;SDS011;9652;49.014;12.052;2022-12-29T12:13:17;4.57;;;3.60;;
19038;SDS011;9652;49.014;12.052;2022-12-29T12:15:54;4.00;;;3.67;;
19038;SDS011;9652;49.014;12.052;2022-12-29T12:18:33;7.20;;;3.60;;
19038;SDS011;9652;49.014;12.052;2022-12-29T12:21:10;4.80;;;3.70;;
19038;SDS011;9652;49.014;12.052;2022-12-29T12:24:04;7.37;;;4.13;;
19038;SDS011;9652;49.014;12.052;2022-12-29T12:26:56;4.50;;;3.90;;
19038;SDS011;9652;49.014;12.052;2022-12-29T12:29:32;3.63;;;3.33;;
19038;SDS011;9652;49.014;12.052;2022-12-29T12:32:13;5.30;;;3.77;;
19038;SDS011;9652;49.014;12.052;2022-12-29T12:34:45;4.10;;;3.60;;
19038;SDS011;9652;49.014;12.052;2022-12-29T12:40:20;5.07;;;3.47;;
19038;SDS011;9652;49.014;12.052;2022-12-29T12:43:13;3.50;;;3.20;;
19038;SDS011;9652;49.014;12.052;2022-12-29T12:46:27;3.23;;;2.93;;
19038;SDS011;9652;49.014;12.052;2022-12-29T12:52:33;3.10;;;2.80;;
19038;SDS011;9652;49.014;12.052;2022-12-29T12:55:22;2.77;;;2.50;;
19038;SDS011;9652;49.014;12.052;2022-12-29T12:58:12;3.03;;;2.60;;
19038;SDS011;9652;49.014;12.052;2022-12-29T13:00:58;3.47;;;2.83;;
19038;SDS011;9652;49.014;12.052;2022-12-29T13:03:44;3.17;;;2.57;;
19038;SDS011;9652;49.014;12.052;2022-12-29T13:06:32;4.07;;;2.50;;
19038;SDS011;9652;49.014;12.052;2022-12-29T13:09:17;4.43;;;3.40;;
19038;SDS011;9652;49.014;12.052;2022-12-29T13:12:11;2.93;;;2.73;;
19038;SDS011;9652;49.014;12.052;2022-12-29T13:14:57;2.93;;;2.33;;
19038;SDS011;9652;49.014;12.052;2022-12-29T13:17:41;2.67;;;2.47;;
19038;SDS011;9652;49.014;12.052;2022-12-29T13:20:18;2.50;;;2.30;;
19038;SDS011;9652;49.014;12.052;2022-12-29T13:22:59;2.67;;;2.47;;
19038;SDS011;9652;49.014;12.052;2022-12-29T13:25:37;2.43;;;2.23;;
19038;SDS011;9652;49.014;12.052;2022-12-29T13:28:15;2.90;;;2.50;;
19038;SDS011;9652;49.014;12.052;2022-12-29T13:30:53;3.00;;;2.67;;
19038;SDS011;9652;49.014;12.052;2022-12-29T13:33:28;3.97;;;2.40;;
19038;SDS011;9652;49.014;12.052;2022-12-29T13:36:16;2.50;;;2.30;;
19038;SDS011;9652;49.014;12.052;2022-12-29T13:38:55;5.70;;;3.87;;
19038;SDS011;9652;49.014;12.052;2022-12-29T13:41:37;5.30;;;3.00;;
19038;SDS011;9652;49.014;12.052;2022-12-29T13:44:11;4.37;;;2.77;;
19038;SDS011;9652;49.014;12.052;2022-12-29T13:46:46;3.33;;;2.70;;
19038;SDS011;9652;49.014;12.052;2022-12-29T13:49:15;3.10;;;2.80;;
19038;SDS011;9652;49.014;12.052;2022-12-29T13:51:47;3.37;;;2.40;;
19038;SDS011;9652;49.014;12.052;2022-12-29T13:54:24;2.47;;;2.27;;
19038;SDS011;9652;49.014;12.052;2022-12-29T13:57:05;4.67;;;2.23;;
19038;SDS011;9652;49.014;12.052;2022-12-29T13:59:42;3.53;;;2.50;;
19038;SDS011;9652;49.014;12.052;2022-12-29T14:02:21;2.60;;;2.40;;
19038;SDS011;9652;49.014;12.052;2022-12-29T14:05:05;3.07;;;2.23;;
19038;SDS011;9652;49.014;12.052;2022-12-29T14:07:56;3.00;;;2.50;;
19038;SDS011;9652;49.014;12.052;2022-12-29T14:10:28;2.10;;;2.00;;
19038;SDS011;9652;49.014;12.052;2022-12-29T14:13:02;2.30;;;1.97;;
19038;SDS011;9652;49.014;12.052;2022-12-29T14:15:32;2.43;;;2.23;;
19038;SDS011;9652;49.014;12.052;2022-12-29T14:18:13;3.80;;;2.00;;
19038;SDS011;9652;49.014;12.052;2022-12-29T14:20:49;2.87;;;1.70;;
19038;SDS011;9652;49.014;12.052;2022-12-29T14:23:36;2.47;;;2.10;;
19038;SDS011;9652;49.014;12.052;2022-12-29T14:26:11;2.00;;;1.80;;
19038;SDS011;9652;49.014;12.052;2022-12-29T14:28:43;1.97;;;1.83;;
19038;SDS011;9652;49.014;12.052;2022-12-29T14:37:22;2.03;;;1.93;;
19038;SDS011;9652;49.014;12.052;2022-12-29T14:40:02;2.30;;;2.10;;
19038;SDS011;9652;49.014;12.052;2022-12-29T14:42:34;2.00;;;1.90;;
19038;SDS011;9652;49.014;12.052;2022-12-29T14:45:02;2.20;;;2.00;;
19038;SDS011;9652;49.014;12.052;2022-12-29T14:47:52;1.90;;;1.80;;
19038;SDS011;9652;49.014;12.052;2022-12-29T14:50:21;2.07;;;1.90;;
19038;SDS011;9652;49.014;12.052;2022-12-29T14:53:00;2.27;;;2.07;;
19038;SDS011;9652;49.014;12.052;2022-12-29T14:55:32;2.00;;;1.87;;
19038;SDS011;9652;49.014;12.052;2022-12-29T14:58:11;2.03;;;1.87;;
19038;SDS011;9652;49.014;12.052;2022-12-29T15:00:44;2.17;;;2.00;;
19038;SDS011;9652;49.014;12.052;2022-12-29T15:03:14;4.40;;;2.10;;
19038;SDS011;9652;49.014;12.052;2022-12-29T15:05:48;4.07;;;2.20;;
19038;SDS011;9652;49.014;12.052;2022-12-29T15:08:19;3.10;;;2.00;;
19038;SDS011;9652;49.014;12.052;2022-12-29T15:10:52;2.07;;;1.87;;
19038;SDS011;9652;49.014;12.052;2022-12-29T15:13:32;4.30;;;2.70;;
19038;SDS011;9652;49.014;12.052;2022-12-29T15:16:02;4.27;;;2.63;;
19038;SDS011;9652;49.014;12.052;2022-12-29T15:18:30;4.43;;;2.53;;
19038;SDS011;9652;49.014;12.052;2022-12-29T15:20:59;2.50;;;2.30;;
19038;SDS011;9652;49.014;12.052;2022-12-29T15:23:30;4.80;;;2.30;;
19038;SDS011;9652;49.014;12.052;2022-12-29T15:26:01;2.80;;;2.50;;
19038;SDS011;9652;49.014;12.052;2022-12-29T15:28:37;2.30;;;2.10;;
19038;SDS011;9652;49.014;12.052;2022-12-29T15:31:10;2.13;;;2.00;;
19038;SDS011;9652;49.014;12.052;2022-12-29T15:33:41;2.70;;;2.10;;
19038;SDS011;9652;49.014;12.052;2022-12-29T15:36:13;2.20;;;2.00;;
19038;SDS011;9652;49.014;12.052;2022-12-29T15:38:46;7.10;;;2.00;;
19038;SDS011;9652;49.014;12.052;2022-12-29T15:41:18;2.53;;;2.37;;
19038;SDS011;9652;49.014;12.052;2022-12-29T15:44:00;4.77;;;2.50;;
19038;SDS011;9652;49.014;12.052;2022-12-29T15:46:38;2.17;;;1.97;;